sensor_id;sensor_type;location;lat;lon;timestamp;P1;P2;P0
38451;PMS5003;24231;52.514;13.438;2023-03-04T00:03:02;33;27;
38451;PMS5003;24231;52.514;13.438;2023-03-04T00:05:29;46;27;
38451;PMS5003;24231;52.514;13.438;2023-03-04T00:07:56;35;31;
38451;PMS5003;24231;52.514;13.438;2023-03-04T00:10:23;38;32;
38451;PMS5003;24231;52.514;13.438;2023-03-04T00:12:51;34;25;
38451;PMS5003;24231;52.514;13.438;2023-03-04T00:15:18;29;24;
38451;PMS5003;24231;52.514;13.438;2023-03-04T00:17:45;38;27;
38451;PMS5003;24231;52.514;13.438;2023-03-04T00:20:13;35;28;
38451;PMS5003;24231;52.514;13.438;2023-03-04T00:22:40;35;29;
38451;PMS5003;24231;52.514;13.438;2023-03-04T00:25:07;33;25;
38451;PMS5003;24231;52.514;13.438;2023-03-04T00:27:34;37;31;
38451;PMS5003;24231;52.514;13.438;2023-03-04T00:30:01;33;27;
38451;PMS5003;24231;52.514;13.438;2023-03-04T00:32:29;31;24;
38451;PMS5003;24231;52.514;13.438;2023-03-04T00:34:56;30;24;
38451;PMS5003;24231;52.514;13.438;2023-03-04T00:37:23;32;25;
38451;PMS5003;24231;52.514;13.438;2023-03-04T00:39:50;27;22;
38451;PMS5003;24231;52.514;13.438;2023-03-04T00:42:18;30;26;
38451;PMS5003;24231;52.514;13.438;2023-03-04T00:44:45;33;25;
38451;PMS5003;24231;52.514;13.438;2023-03-04T00:47:12;33;26;
38451;PMS5003;24231;52.514;13.438;2023-03-04T00:49:40;29;24;
38451;PMS5003;24231;52.514;13.438;2023-03-04T00:52:07;20;17;
38451;PMS5003;24231;52.514;13.438;2023-03-04T00:54:34;22;20;
38451;PMS5003;24231;52.514;13.438;2023-03-04T00:57:01;31;28;
38451;PMS5003;24231;52.514;13.438;2023-03-04T00:59:28;26;16;
38451;PMS5003;24231;52.514;13.438;2023-03-04T01:01:55;18;14;
38451;PMS5003;24231;52.514;13.438;2023-03-04T01:04:22;30;24;
38451;PMS5003;24231;52.514;13.438;2023-03-04T01:06:50;26;21;
38451;PMS5003;24231;52.514;13.438;2023-03-04T01:09:17;23;20;
38451;PMS5003;24231;52.514;13.438;2023-03-04T01:11:44;23;20;
38451;PMS5003;24231;52.514;13.438;2023-03-04T01:14:11;23;16;
38451;PMS5003;24231;52.514;13.438;2023-03-04T01:16:39;22;18;
38451;PMS5003;24231;52.514;13.438;2023-03-04T01:19:07;20;18;
38451;PMS5003;24231;52.514;13.438;2023-03-04T01:21:33;21;17;
38451;PMS5003;24231;52.514;13.438;2023-03-04T01:24:00;20;17;
38451;PMS5003;24231;52.514;13.438;2023-03-04T01:26:27;19;15;
38451;PMS5003;24231;52.514;13.438;2023-03-04T01:28:55;25;21;
38451;PMS5003;24231;52.514;13.438;2023-03-04T01:31:22;18;15;
38451;PMS5003;24231;52.514;13.438;2023-03-04T01:33:50;17;16;
38451;PMS5003;24231;52.514;13.438;2023-03-04T01:36:17;18;14;
38451;PMS5003;24231;52.514;13.438;2023-03-04T01:38:44;13;12;
38451;PMS5003;24231;52.514;13.438;2023-03-04T01:41:11;24;21;
38451;PMS5003;24231;52.514;13.438;2023-03-04T01:43:39;17;15;
38451;PMS5003;24231;52.514;13.438;2023-03-04T01:46:08;17;17;
38451;PMS5003;24231;52.514;13.438;2023-03-04T01:48:37;18;14;
38451;PMS5003;24231;52.514;13.438;2023-03-04T01:51:05;11;11;
38451;PMS5003;24231;52.514;13.438;2023-03-04T01:53:37;15;15;
38451;PMS5003;24231;52.514;13.438;2023-03-04T01:56:10;15;13;
38451;PMS5003;24231;52.514;13.438;2023-03-04T01:58:41;18;14;
38451;PMS5003;24231;52.514;13.438;2023-03-04T02:01:09;13;13;
38451;PMS5003;24231;52.514;13.438;2023-03-04T02:03:38;15;13;
38451;PMS5003;24231;52.514;13.438;2023-03-04T02:06:06;14;12;
38451;PMS5003;24231;52.514;13.438;2023-03-04T02:08:33;14;11;
38451;PMS5003;24231;52.514;13.438;2023-03-04T02:11:01;15;11;
38451;PMS5003;24231;52.514;13.438;2023-03-04T02:13:29;13;11;
38451;PMS5003;24231;52.514;13.438;2023-03-04T02:15:56;14;9;
38451;PMS5003;24231;52.514;13.438;2023-03-04T02:18:23;8;7;
38451;PMS5003;24231;52.514;13.438;2023-03-04T02:20:53;17;12;
38451;PMS5003;24231;52.514;13.438;2023-03-04T02:23:29;13;12;
38451;PMS5003;24231;52.514;13.438;2023-03-04T02:26:10;8;7;
38451;PMS5003;24231;52.514;13.438;2023-03-04T02:28:39;15;11;
38451;PMS5003;24231;52.514;13.438;2023-03-04T02:31:08;12;8;
38451;PMS5003;24231;52.514;13.438;2023-03-04T02:33:45;11;8;
38451;PMS5003;24231;52.514;13.438;2023-03-04T02:36:13;15;8;
38451;PMS5003;24231;52.514;13.438;2023-03-04T02:38:40;21;16;
38451;PMS5003;24231;52.514;13.438;2023-03-04T02:41:08;9;8;
38451;PMS5003;24231;52.514;13.438;2023-03-04T02:43:39;6;6;
38451;PMS5003;24231;52.514;13.438;2023-03-04T02:46:07;8;7;
38451;PMS5003;24231;52.514;13.438;2023-03-04T02:48:37;13;9;
38451;PMS5003;24231;52.514;13.438;2023-03-04T02:51:04;9;7;
38451;PMS5003;24231;52.514;13.438;2023-03-04T02:53:31;13;12;
38451;PMS5003;24231;52.514;13.438;2023-03-04T02:55:59;12;7;
38451;PMS5003;24231;52.514;13.438;2023-03-04T02:58:26;7;7;
38451;PMS5003;24231;52.514;13.438;2023-03-04T03:00:53;7;5;
38451;PMS5003;24231;52.514;13.438;2023-03-04T03:03:20;15;10;
38451;PMS5003;24231;52.514;13.438;2023-03-04T03:05:48;6;6;
38451;PMS5003;24231;52.514;13.438;2023-03-04T03:08:15;12;9;
38451;PMS5003;24231;52.514;13.438;2023-03-04T03:10:42;8;7;
38451;PMS5003;24231;52.514;13.438;2023-03-04T03:13:09;7;7;
38451;PMS5003;24231;52.514;13.438;2023-03-04T03:15:36;7;7;
38451;PMS5003;24231;52.514;13.438;2023-03-04T03:18:03;9;8;
38451;PMS5003;24231;52.514;13.438;2023-03-04T03:20:30;12;7;
38451;PMS5003;24231;52.514;13.438;2023-03-04T03:22:56;7;5;
38451;PMS5003;24231;52.514;13.438;2023-03-04T03:25:24;14;10;
38451;PMS5003;24231;52.514;13.438;2023-03-04T03:27:51;7;6;
38451;PMS5003;24231;52.514;13.438;2023-03-04T03:30:19;12;8;
38451;PMS5003;24231;52.514;13.438;2023-03-04T03:32:46;7;6;
38451;PMS5003;24231;52.514;13.438;2023-03-04T03:35:14;7;6;
38451;PMS5003;24231;52.514;13.438;2023-03-04T03:37:41;7;6;
38451;PMS5003;24231;52.514;13.438;2023-03-04T03:40:08;7;5;
38451;PMS5003;24231;52.514;13.438;2023-03-04T03:42:37;8;7;
38451;PMS5003;24231;52.514;13.438;2023-03-04T03:45:05;10;8;
38451;PMS5003;24231;52.514;13.438;2023-03-04T03:47:32;7;6;
38451;PMS5003;24231;52.514;13.438;2023-03-04T03:50:00;7;6;
38451;PMS5003;24231;52.514;13.438;2023-03-04T03:52:27;7;6;
38451;PMS5003;24231;52.514;13.438;2023-03-04T03:54:54;8;8;
38451;PMS5003;24231;52.514;13.438;2023-03-04T03:57:21;9;6;
38451;PMS5003;24231;52.514;13.438;2023-03-04T03:59:48;6;5;
38451;PMS5003;24231;52.514;13.438;2023-03-04T04:02:15;10;10;
38451;PMS5003;24231;52.514;13.438;2023-03-04T04:04:43;7;5;
38451;PMS5003;24231;52.514;13.438;2023-03-04T04:07:10;8;6;
38451;PMS5003;24231;52.514;13.438;2023-03-04T04:09:37;4;4;
38451;PMS5003;24231;52.514;13.438;2023-03-04T04:12:05;8;8;
38451;PMS5003;24231;52.514;13.438;2023-03-04T04:14:33;8;4;
38451;PMS5003;24231;52.514;13.438;2023-03-04T04:17:00;6;6;
38451;PMS5003;24231;52.514;13.438;2023-03-04T04:19:27;5;5;
38451;PMS5003;24231;52.514;13.438;2023-03-04T04:21:55;5;2;
38451;PMS5003;24231;52.514;13.438;2023-03-04T04:24:23;13;10;
38451;PMS5003;24231;52.514;13.438;2023-03-04T04:26:50;6;6;
38451;PMS5003;24231;52.514;13.438;2023-03-04T04:29:17;7;7;
38451;PMS5003;24231;52.514;13.438;2023-03-04T04:31:44;14;4;
38451;PMS5003;24231;52.514;13.438;2023-03-04T04:34:12;7;5;
38451;PMS5003;24231;52.514;13.438;2023-03-04T04:36:39;6;5;
38451;PMS5003;24231;52.514;13.438;2023-03-04T04:39:06;4;4;
38451;PMS5003;24231;52.514;13.438;2023-03-04T04:41:35;4;4;
38451;PMS5003;24231;52.514;13.438;2023-03-04T04:44:04;7;6;
38451;PMS5003;24231;52.514;13.438;2023-03-04T04:46:31;6;6;
38451;PMS5003;24231;52.514;13.438;2023-03-04T04:48:59;7;6;
38451;PMS5003;24231;52.514;13.438;2023-03-04T04:51:26;11;9;
38451;PMS5003;24231;52.514;13.438;2023-03-04T04:53:54;6;5;
38451;PMS5003;24231;52.514;13.438;2023-03-04T04:56:22;8;7;
38451;PMS5003;24231;52.514;13.438;2023-03-04T04:58:51;5;5;
38451;PMS5003;24231;52.514;13.438;2023-03-04T05:01:19;7;5;
38451;PMS5003;24231;52.514;13.438;2023-03-04T05:03:46;7;5;
38451;PMS5003;24231;52.514;13.438;2023-03-04T05:06:13;7;5;
38451;PMS5003;24231;52.514;13.438;2023-03-04T05:08:40;8;7;
38451;PMS5003;24231;52.514;13.438;2023-03-04T05:11:08;5;5;
38451;PMS5003;24231;52.514;13.438;2023-03-04T05:13:35;5;5;
38451;PMS5003;24231;52.514;13.438;2023-03-04T05:16:03;14;6;
38451;PMS5003;24231;52.514;13.438;2023-03-04T05:18:31;4;4;
38451;PMS5003;24231;52.514;13.438;2023-03-04T05:20:58;9;8;
38451;PMS5003;24231;52.514;13.438;2023-03-04T05:23:27;7;5;
38451;PMS5003;24231;52.514;13.438;2023-03-04T05:25:56;5;5;
38451;PMS5003;24231;52.514;13.438;2023-03-04T05:28:23;4;3;
38451;PMS5003;24231;52.514;13.438;2023-03-04T05:30:50;6;4;
38451;PMS5003;24231;52.514;13.438;2023-03-04T05:33:18;5;2;
38451;PMS5003;24231;52.514;13.438;2023-03-04T05:35:45;4;3;
38451;PMS5003;24231;52.514;13.438;2023-03-04T05:38:15;6;6;
38451;PMS5003;24231;52.514;13.438;2023-03-04T05:40:44;2;2;
38451;PMS5003;24231;52.514;13.438;2023-03-04T05:43:12;2;2;
38451;PMS5003;24231;52.514;13.438;2023-03-04T05:45:40;5;5;
38451;PMS5003;24231;52.514;13.438;2023-03-04T05:48:08;6;4;
38451;PMS5003;24231;52.514;13.438;2023-03-04T05:50:35;4;4;
38451;PMS5003;24231;52.514;13.438;2023-03-04T05:53:03;4;4;
38451;PMS5003;24231;52.514;13.438;2023-03-04T05:55:30;9;7;
38451;PMS5003;24231;52.514;13.438;2023-03-04T05:57:57;4;4;
38451;PMS5003;24231;52.514;13.438;2023-03-04T06:00:24;8;5;
38451;PMS5003;24231;52.514;13.438;2023-03-04T06:02:52;7;5;
38451;PMS5003;24231;52.514;13.438;2023-03-04T06:05:19;8;7;
38451;PMS5003;24231;52.514;13.438;2023-03-04T06:07:47;2;2;
38451;PMS5003;24231;52.514;13.438;2023-03-04T06:10:14;7;5;
38451;PMS5003;24231;52.514;13.438;2023-03-04T06:12:43;11;9;
38451;PMS5003;24231;52.514;13.438;2023-03-04T06:15:11;3;3;
38451;PMS5003;24231;52.514;13.438;2023-03-04T06:17:39;5;3;
38451;PMS5003;24231;52.514;13.438;2023-03-04T06:20:09;9;8;
38451;PMS5003;24231;52.514;13.438;2023-03-04T06:22:37;8;8;
38451;PMS5003;24231;52.514;13.438;2023-03-04T06:25:05;7;6;
38451;PMS5003;24231;52.514;13.438;2023-03-04T06:27:33;5;3;
38451;PMS5003;24231;52.514;13.438;2023-03-04T06:30:00;4;3;
38451;PMS5003;24231;52.514;13.438;2023-03-04T06:32:28;10;8;
38451;PMS5003;24231;52.514;13.438;2023-03-04T06:34:55;4;3;
38451;PMS5003;24231;52.514;13.438;2023-03-04T06:37:22;4;3;
38451;PMS5003;24231;52.514;13.438;2023-03-04T06:39:50;3;3;
38451;PMS5003;24231;52.514;13.438;2023-03-04T06:42:17;5;5;
38451;PMS5003;24231;52.514;13.438;2023-03-04T06:44:45;5;2;
38451;PMS5003;24231;52.514;13.438;2023-03-04T06:47:13;4;3;
38451;PMS5003;24231;52.514;13.438;2023-03-04T06:49:41;4;3;
38451;PMS5003;24231;52.514;13.438;2023-03-04T06:52:09;5;3;
38451;PMS5003;24231;52.514;13.438;2023-03-04T06:54:35;5;5;
38451;PMS5003;24231;52.514;13.438;2023-03-04T06:57:03;3;2;
38451;PMS5003;24231;52.514;13.438;2023-03-04T06:59:31;7;4;
38451;PMS5003;24231;52.514;13.438;2023-03-04T07:01:58;9;7;
38451;PMS5003;24231;52.514;13.438;2023-03-04T07:04:26;6;6;
38451;PMS5003;24231;52.514;13.438;2023-03-04T07:06:53;7;6;
38451;PMS5003;24231;52.514;13.438;2023-03-04T07:09:21;5;5;
38451;PMS5003;24231;52.514;13.438;2023-03-04T07:11:48;3;3;
38451;PMS5003;24231;52.514;13.438;2023-03-04T07:14:16;7;6;
38451;PMS5003;24231;52.514;13.438;2023-03-04T07:16:43;5;5;
38451;PMS5003;24231;52.514;13.438;2023-03-04T07:19:11;7;7;
38451;PMS5003;24231;52.514;13.438;2023-03-04T07:21:38;6;5;
38451;PMS5003;24231;52.514;13.438;2023-03-04T07:24:06;9;5;
38451;PMS5003;24231;52.514;13.438;2023-03-04T07:26:33;6;6;
38451;PMS5003;24231;52.514;13.438;2023-03-04T07:29:01;7;4;
38451;PMS5003;24231;52.514;13.438;2023-03-04T07:31:29;9;8;
38451;PMS5003;24231;52.514;13.438;2023-03-04T07:33:58;5;4;
38451;PMS5003;24231;52.514;13.438;2023-03-04T07:36:26;3;3;
38451;PMS5003;24231;52.514;13.438;2023-03-04T07:38:54;3;3;
38451;PMS5003;24231;52.514;13.438;2023-03-04T07:41:22;7;5;
38451;PMS5003;24231;52.514;13.438;2023-03-04T07:43:50;4;4;
38451;PMS5003;24231;52.514;13.438;2023-03-04T07:46:18;7;6;
38451;PMS5003;24231;52.514;13.438;2023-03-04T07:48:46;4;3;
38451;PMS5003;24231;52.514;13.438;2023-03-04T07:51:14;6;6;
38451;PMS5003;24231;52.514;13.438;2023-03-04T07:53:43;4;4;
38451;PMS5003;24231;52.514;13.438;2023-03-04T07:56:11;3;3;
38451;PMS5003;24231;52.514;13.438;2023-03-04T07:58:40;6;3;
38451;PMS5003;24231;52.514;13.438;2023-03-04T08:01:08;3;3;
38451;PMS5003;24231;52.514;13.438;2023-03-04T08:03:37;3;3;
38451;PMS5003;24231;52.514;13.438;2023-03-04T08:06:05;5;3;
38451;PMS5003;24231;52.514;13.438;2023-03-04T08:08:34;5;3;
38451;PMS5003;24231;52.514;13.438;2023-03-04T08:11:03;4;4;
38451;PMS5003;24231;52.514;13.438;2023-03-04T08:13:31;3;3;
38451;PMS5003;24231;52.514;13.438;2023-03-04T08:15:58;3;3;
38451;PMS5003;24231;52.514;13.438;2023-03-04T08:18:25;3;3;
38451;PMS5003;24231;52.514;13.438;2023-03-04T08:20:53;3;3;
38451;PMS5003;24231;52.514;13.438;2023-03-04T08:23:20;3;3;
38451;PMS5003;24231;52.514;13.438;2023-03-04T08:25:48;2;1;
38451;PMS5003;24231;52.514;13.438;2023-03-04T08:28:15;2;2;
38451;PMS5003;24231;52.514;13.438;2023-03-04T08:30:42;3;2;
38451;PMS5003;24231;52.514;13.438;2023-03-04T08:33:10;3;3;
38451;PMS5003;24231;52.514;13.438;2023-03-04T08:35:38;3;3;
38451;PMS5003;24231;52.514;13.438;2023-03-04T08:38:05;3;2;
38451;PMS5003;24231;52.514;13.438;2023-03-04T08:40:33;3;1;
38451;PMS5003;24231;52.514;13.438;2023-03-04T08:43:00;3;2;
38451;PMS5003;24231;52.514;13.438;2023-03-04T08:45:28;3;2;
38451;PMS5003;24231;52.514;13.438;2023-03-04T08:47:55;5;2;
38451;PMS5003;24231;52.514;13.438;2023-03-04T08:50:22;2;2;
38451;PMS5003;24231;52.514;13.438;2023-03-04T08:52:50;2;2;
38451;PMS5003;24231;52.514;13.438;2023-03-04T08:55:17;5;2;
38451;PMS5003;24231;52.514;13.438;2023-03-04T08:57:45;4;3;
38451;PMS5003;24231;52.514;13.438;2023-03-04T09:00:12;2;1;
38451;PMS5003;24231;52.514;13.438;2023-03-04T09:02:40;4;2;
38451;PMS5003;24231;52.514;13.438;2023-03-04T09:05:08;3;2;
38451;PMS5003;24231;52.514;13.438;2023-03-04T09:07:35;3;3;
38451;PMS5003;24231;52.514;13.438;2023-03-04T09:10:03;2;2;
38451;PMS5003;24231;52.514;13.438;2023-03-04T09:12:31;4;3;
38451;PMS5003;24231;52.514;13.438;2023-03-04T09:14:58;1;1;
38451;PMS5003;24231;52.514;13.438;2023-03-04T09:17:26;7;5;
38451;PMS5003;24231;52.514;13.438;2023-03-04T09:19:53;2;1;
38451;PMS5003;24231;52.514;13.438;2023-03-04T09:22:20;3;2;
38451;PMS5003;24231;52.514;13.438;2023-03-04T09:24:48;2;2;
38451;PMS5003;24231;52.514;13.438;2023-03-04T09:27:15;1;1;
38451;PMS5003;24231;52.514;13.438;2023-03-04T09:29:43;4;4;
38451;PMS5003;24231;52.514;13.438;2023-03-04T09:32:10;2;2;
38451;PMS5003;24231;52.514;13.438;2023-03-04T09:34:38;1;1;
38451;PMS5003;24231;52.514;13.438;2023-03-04T09:37:05;3;1;
38451;PMS5003;24231;52.514;13.438;2023-03-04T09:39:33;1;1;
38451;PMS5003;24231;52.514;13.438;2023-03-04T09:42:01;2;2;
38451;PMS5003;24231;52.514;13.438;2023-03-04T09:44:29;3;3;
38451;PMS5003;24231;52.514;13.438;2023-03-04T09:47:00;2;1;
38451;PMS5003;24231;52.514;13.438;2023-03-04T09:49:29;4;3;
38451;PMS5003;24231;52.514;13.438;2023-03-04T09:51:59;2;2;
38451;PMS5003;24231;52.514;13.438;2023-03-04T09:54:32;12;11;
38451;PMS5003;24231;52.514;13.438;2023-03-04T09:57:18;6;5;
38451;PMS5003;24231;52.514;13.438;2023-03-04T09:59:51;3;3;
38451;PMS5003;24231;52.514;13.438;2023-03-04T10:02:28;4;2;
38451;PMS5003;24231;52.514;13.438;2023-03-04T10:05:11;4;2;
38451;PMS5003;24231;52.514;13.438;2023-03-04T10:07:42;1;1;
38451;PMS5003;24231;52.514;13.438;2023-03-04T10:10:16;8;2;
38451;PMS5003;24231;52.514;13.438;2023-03-04T10:12:47;1;1;
38451;PMS5003;24231;52.514;13.438;2023-03-04T10:15:20;2;2;
38451;PMS5003;24231;52.514;13.438;2023-03-04T10:17:55;3;3;
38451;PMS5003;24231;52.514;13.438;2023-03-04T10:20:28;2;2;
38451;PMS5003;24231;52.514;13.438;2023-03-04T10:23:08;1;1;
38451;PMS5003;24231;52.514;13.438;2023-03-04T10:25:39;3;2;
38451;PMS5003;24231;52.514;13.438;2023-03-04T10:28:11;2;2;
38451;PMS5003;24231;52.514;13.438;2023-03-04T10:30:45;2;1;
38451;PMS5003;24231;52.514;13.438;2023-03-04T10:33:17;3;2;
38451;PMS5003;24231;52.514;13.438;2023-03-04T10:35:47;2;2;
38451;PMS5003;24231;52.514;13.438;2023-03-04T10:38:19;3;1;
38451;PMS5003;24231;52.514;13.438;2023-03-04T10:40:47;1;1;
38451;PMS5003;24231;52.514;13.438;2023-03-04T10:43:15;1;1;
38451;PMS5003;24231;52.514;13.438;2023-03-04T10:45:44;3;1;
38451;PMS5003;24231;52.514;13.438;2023-03-04T10:48:16;5;2;
38451;PMS5003;24231;52.514;13.438;2023-03-04T10:50:46;2;2;
38451;PMS5003;24231;52.514;13.438;2023-03-04T10:53:23;1;1;
38451;PMS5003;24231;52.514;13.438;2023-03-04T10:55:55;5;4;
38451;PMS5003;24231;52.514;13.438;2023-03-04T10:58:23;2;2;
38451;PMS5003;24231;52.514;13.438;2023-03-04T11:00:58;9;6;
38451;PMS5003;24231;52.514;13.438;2023-03-04T11:03:29;1;1;
38451;PMS5003;24231;52.514;13.438;2023-03-04T11:06:15;3;3;
38451;PMS5003;24231;52.514;13.438;2023-03-04T11:08:52;2;2;
38451;PMS5003;24231;52.514;13.438;2023-03-04T11:11:22;2;1;
38451;PMS5003;24231;52.514;13.438;2023-03-04T11:13:52;4;1;
38451;PMS5003;24231;52.514;13.438;2023-03-04T11:16:23;1;1;
38451;PMS5003;24231;52.514;13.438;2023-03-04T11:18:53;3;2;
38451;PMS5003;24231;52.514;13.438;2023-03-04T11:21:24;3;1;
38451;PMS5003;24231;52.514;13.438;2023-03-04T11:23:56;2;0;
38451;PMS5003;24231;52.514;13.438;2023-03-04T11:26:25;3;3;
38451;PMS5003;24231;52.514;13.438;2023-03-04T11:28:58;5;5;
38451;PMS5003;24231;52.514;13.438;2023-03-04T11:31:31;6;6;
38451;PMS5003;24231;52.514;13.438;2023-03-04T11:34:03;4;2;
38451;PMS5003;24231;52.514;13.438;2023-03-04T11:36:41;10;8;
38451;PMS5003;24231;52.514;13.438;2023-03-04T11:39:19;3;3;
38451;PMS5003;24231;52.514;13.438;2023-03-04T11:41:53;4;4;
38451;PMS5003;24231;52.514;13.438;2023-03-04T11:44:26;8;7;
38451;PMS5003;24231;52.514;13.438;2023-03-04T11:46:58;10;5;
38451;PMS5003;24231;52.514;13.438;2023-03-04T11:50:01;8;4;
38451;PMS5003;24231;52.514;13.438;2023-03-04T11:52:46;3;3;
38451;PMS5003;24231;52.514;13.438;2023-03-04T11:55:29;5;3;
38451;PMS5003;24231;52.514;13.438;2023-03-04T11:58:07;2;1;
38451;PMS5003;24231;52.514;13.438;2023-03-04T12:00:51;7;5;
38451;PMS5003;24231;52.514;13.438;2023-03-04T12:03:36;6;4;
38451;PMS5003;24231;52.514;13.438;2023-03-04T12:06:17;3;3;
38451;PMS5003;24231;52.514;13.438;2023-03-04T12:08:58;4;3;
38451;PMS5003;24231;52.514;13.438;2023-03-04T12:11:38;1;1;
38451;PMS5003;24231;52.514;13.438;2023-03-04T12:14:15;4;3;
38451;PMS5003;24231;52.514;13.438;2023-03-04T12:16:55;4;3;
38451;PMS5003;24231;52.514;13.438;2023-03-04T12:19:36;11;9;
38451;PMS5003;24231;52.514;13.438;2023-03-04T12:22:24;6;5;
38451;PMS5003;24231;52.514;13.438;2023-03-04T12:25:12;7;4;
38451;PMS5003;24231;52.514;13.438;2023-03-04T12:27:52;8;6;
38451;PMS5003;24231;52.514;13.438;2023-03-04T12:30:32;5;5;
38451;PMS5003;24231;52.514;13.438;2023-03-04T12:33:09;8;7;
38451;PMS5003;24231;52.514;13.438;2023-03-04T12:35:46;3;3;
38451;PMS5003;24231;52.514;13.438;2023-03-04T12:38:27;5;4;
38451;PMS5003;24231;52.514;13.438;2023-03-04T12:41:09;5;4;
38451;PMS5003;24231;52.514;13.438;2023-03-04T12:43:50;3;2;
38451;PMS5003;24231;52.514;13.438;2023-03-04T12:46:26;1;1;
38451;PMS5003;24231;52.514;13.438;2023-03-04T12:49:15;4;2;
38451;PMS5003;24231;52.514;13.438;2023-03-04T12:51:53;3;3;
38451;PMS5003;24231;52.514;13.438;2023-03-04T12:54:30;4;2;
38451;PMS5003;24231;52.514;13.438;2023-03-04T12:57:00;2;2;
38451;PMS5003;24231;52.514;13.438;2023-03-04T12:59:32;5;2;
38451;PMS5003;24231;52.514;13.438;2023-03-04T13:02:10;5;3;
38451;PMS5003;24231;52.514;13.438;2023-03-04T13:04:52;6;3;
38451;PMS5003;24231;52.514;13.438;2023-03-04T13:07:32;2;2;
38451;PMS5003;24231;52.514;13.438;2023-03-04T13:10:09;9;3;
38451;PMS5003;24231;52.514;13.438;2023-03-04T13:12:46;3;3;
38451;PMS5003;24231;52.514;13.438;2023-03-04T13:15:17;2;2;
38451;PMS5003;24231;52.514;13.438;2023-03-04T13:17:53;5;3;
38451;PMS5003;24231;52.514;13.438;2023-03-04T13:20:23;1;1;
38451;PMS5003;24231;52.514;13.438;2023-03-04T13:22:58;8;2;
38451;PMS5003;24231;52.514;13.438;2023-03-04T13:25:31;3;1;
38451;PMS5003;24231;52.514;13.438;2023-03-04T13:28:05;4;2;
38451;PMS5003;24231;52.514;13.438;2023-03-04T13:30:41;2;1;
38451;PMS5003;24231;52.514;13.438;2023-03-04T13:34:09;4;2;
38451;PMS5003;24231;52.514;13.438;2023-03-04T13:37:20;4;3;
38451;PMS5003;24231;52.514;13.438;2023-03-04T13:40:22;3;2;
38451;PMS5003;24231;52.514;13.438;2023-03-04T13:43:17;4;2;
38451;PMS5003;24231;52.514;13.438;2023-03-04T13:45:51;4;4;
38451;PMS5003;24231;52.514;13.438;2023-03-04T13:48:22;3;3;
38451;PMS5003;24231;52.514;13.438;2023-03-04T13:50:55;4;3;
38451;PMS5003;24231;52.514;13.438;2023-03-04T13:53:28;9;7;
38451;PMS5003;24231;52.514;13.438;2023-03-04T13:56:08;4;3;
38451;PMS5003;24231;52.514;13.438;2023-03-04T13:58:39;4;4;
38451;PMS5003;24231;52.514;13.438;2023-03-04T14:01:17;3;2;
38451;PMS5003;24231;52.514;13.438;2023-03-04T14:03:51;3;3;
38451;PMS5003;24231;52.514;13.438;2023-03-04T14:06:19;6;3;
38451;PMS5003;24231;52.514;13.438;2023-03-04T14:08:48;4;4;
38451;PMS5003;24231;52.514;13.438;2023-03-04T14:11:18;8;6;
38451;PMS5003;24231;52.514;13.438;2023-03-04T14:14:39;8;5;
38451;PMS5003;24231;52.514;13.438;2023-03-04T14:17:14;14;11;
38451;PMS5003;24231;52.514;13.438;2023-03-04T14:19:46;2;2;
38451;PMS5003;24231;52.514;13.438;2023-03-04T14:22:23;12;10;
38451;PMS5003;24231;52.514;13.438;2023-03-04T14:24:56;4;4;
38451;PMS5003;24231;52.514;13.438;2023-03-04T14:27:24;2;2;
38451;PMS5003;24231;52.514;13.438;2023-03-04T14:29:55;3;3;
38451;PMS5003;24231;52.514;13.438;2023-03-04T14:32:23;5;4;
38451;PMS5003;24231;52.514;13.438;2023-03-04T14:35:02;3;2;
38451;PMS5003;24231;52.514;13.438;2023-03-04T14:37:32;5;4;
38451;PMS5003;24231;52.514;13.438;2023-03-04T14:40:09;8;5;
38451;PMS5003;24231;52.514;13.438;2023-03-04T14:42:44;2;2;
38451;PMS5003;24231;52.514;13.438;2023-03-04T14:45:12;3;1;
38451;PMS5003;24231;52.514;13.438;2023-03-04T14:47:42;5;3;
38451;PMS5003;24231;52.514;13.438;2023-03-04T14:50:12;6;4;
38451;PMS5003;24231;52.514;13.438;2023-03-04T14:52:42;5;5;
38451;PMS5003;24231;52.514;13.438;2023-03-04T14:55:21;6;3;
38451;PMS5003;24231;52.514;13.438;2023-03-04T14:57:50;5;2;
38451;PMS5003;24231;52.514;13.438;2023-03-04T15:00:27;4;2;
38451;PMS5003;24231;52.514;13.438;2023-03-04T15:02:58;5;5;
38451;PMS5003;24231;52.514;13.438;2023-03-04T15:05:28;2;2;
38451;PMS5003;24231;52.514;13.438;2023-03-04T15:07:57;4;4;
38451;PMS5003;24231;52.514;13.438;2023-03-04T15:10:26;7;5;
38451;PMS5003;24231;52.514;13.438;2023-03-04T15:12:56;10;6;
38451;PMS5003;24231;52.514;13.438;2023-03-04T15:15:34;1;1;
38451;PMS5003;24231;52.514;13.438;2023-03-04T15:18:13;7;3;
38451;PMS5003;24231;52.514;13.438;2023-03-04T15:20:51;3;3;
38451;PMS5003;24231;52.514;13.438;2023-03-04T15:23:19;8;3;
38451;PMS5003;24231;52.514;13.438;2023-03-04T15:25:49;4;2;
38451;PMS5003;24231;52.514;13.438;2023-03-04T15:28:18;7;5;
38451;PMS5003;24231;52.514;13.438;2023-03-04T15:30:45;0;0;
38451;PMS5003;24231;52.514;13.438;2023-03-04T15:33:12;5;3;
38451;PMS5003;24231;52.514;13.438;2023-03-04T15:35:40;3;3;
38451;PMS5003;24231;52.514;13.438;2023-03-04T15:38:15;4;1;
38451;PMS5003;24231;52.514;13.438;2023-03-04T15:40:42;3;1;
38451;PMS5003;24231;52.514;13.438;2023-03-04T15:43:10;24;20;
38451;PMS5003;24231;52.514;13.438;2023-03-04T15:45:40;8;7;
38451;PMS5003;24231;52.514;13.438;2023-03-04T15:48:09;7;5;
38451;PMS5003;24231;52.514;13.438;2023-03-04T15:50:38;4;3;
38451;PMS5003;24231;52.514;13.438;2023-03-04T15:53:08;6;3;
38451;PMS5003;24231;52.514;13.438;2023-03-04T15:55:40;3;3;
38451;PMS5003;24231;52.514;13.438;2023-03-04T15:58:10;6;4;
38451;PMS5003;24231;52.514;13.438;2023-03-04T16:00:37;3;3;
38451;PMS5003;24231;52.514;13.438;2023-03-04T16:03:04;5;4;
38451;PMS5003;24231;52.514;13.438;2023-03-04T16:05:32;7;6;
38451;PMS5003;24231;52.514;13.438;2023-03-04T16:08:03;6;3;
38451;PMS5003;24231;52.514;13.438;2023-03-04T16:10:31;6;6;
38451;PMS5003;24231;52.514;13.438;2023-03-04T16:12:58;5;2;
38451;PMS5003;24231;52.514;13.438;2023-03-04T16:15:27;10;10;
38451;PMS5003;24231;52.514;13.438;2023-03-04T16:17:55;6;6;
38451;PMS5003;24231;52.514;13.438;2023-03-04T16:20:26;8;4;
38451;PMS5003;24231;52.514;13.438;2023-03-04T16:22:56;5;5;
38451;PMS5003;24231;52.514;13.438;2023-03-04T16:25:25;6;4;
38451;PMS5003;24231;52.514;13.438;2023-03-04T16:27:54;5;3;
38451;PMS5003;24231;52.514;13.438;2023-03-04T16:30:23;4;3;
38451;PMS5003;24231;52.514;13.438;2023-03-04T16:32:51;2;2;
38451;PMS5003;24231;52.514;13.438;2023-03-04T16:35:19;3;2;
38451;PMS5003;24231;52.514;13.438;2023-03-04T16:37:49;8;6;
38451;PMS5003;24231;52.514;13.438;2023-03-04T16:40:17;4;4;
38451;PMS5003;24231;52.514;13.438;2023-03-04T16:42:47;5;3;
38451;PMS5003;24231;52.514;13.438;2023-03-04T16:45:15;2;2;
38451;PMS5003;24231;52.514;13.438;2023-03-04T16:47:44;3;3;
38451;PMS5003;24231;52.514;13.438;2023-03-04T16:50:12;2;2;
38451;PMS5003;24231;52.514;13.438;2023-03-04T16:52:40;6;2;